createdAt,value
2018-04-22T00:01:10.925Z,84.40
2018-04-22T00:06:14.149Z,85.70
2018-04-22T00:11:17.366Z,86.20
2018-04-22T00:16:20.616Z,86.00
2018-04-22T00:21:23.843Z,85.30
2018-04-22T00:26:27.470Z,86.70
2018-04-22T00:31:30.700Z,86.70
2018-04-22T00:36:33.928Z,87.90
2018-04-22T00:41:37.270Z,87.40
2018-04-22T00:46:40.878Z,86.80
2018-04-22T00:51:44.509Z,86.60
2018-04-22T00:56:47.769Z,86.60
2018-04-22T01:01:51.003Z,86.70
2018-04-22T01:06:54.722Z,86.90
2018-04-22T01:11:58.330Z,86.60
2018-04-22T01:17:01.537Z,86.60
2018-04-22T01:22:04.783Z,87.50
2018-04-22T01:27:07.994Z,88.00
2018-04-22T01:32:11.214Z,88.40
2018-04-22T01:37:14.432Z,87.80
2018-04-22T01:42:17.748Z,87.80
2018-04-22T01:47:20.959Z,89.20
2018-04-22T01:52:24.176Z,89.20
2018-04-22T01:57:27.401Z,89.50
2018-04-22T02:02:31.016Z,88.20
2018-04-22T02:07:34.630Z,87.40
2018-04-22T02:12:38.248Z,87.70
2018-04-22T02:17:41.861Z,87.60
2018-04-22T02:22:45.490Z,86.80
2018-04-22T02:27:48.766Z,86.80
2018-04-22T02:32:51.974Z,86.80
2018-04-22T02:37:55.172Z,87.80
2018-04-22T02:42:58.405Z,87.90
2018-04-22T02:48:02.098Z,87.50
2018-04-22T02:53:05.324Z,87.40
2018-04-22T02:58:08.539Z,86.50
2018-04-22T03:03:11.742Z,87.40
2018-04-22T03:08:14.960Z,87.90
2018-04-22T03:13:18.179Z,88.70
2018-04-22T03:18:21.383Z,88.50
2018-04-22T03:23:24.590Z,88.00
2018-04-22T03:28:27.805Z,89.60
2018-04-22T03:33:31.027Z,90.80
2018-04-22T03:38:34.258Z,90.90
2018-04-22T03:43:37.870Z,90.80
2018-04-22T03:48:41.090Z,90.80
2018-04-22T03:53:44.714Z,92.30
2018-04-22T03:58:47.936Z,92.30
2018-04-22T04:03:51.259Z,92.80
2018-04-22T04:08:54.465Z,92.20
2018-04-22T04:13:57.698Z,91.00
2018-04-22T04:19:12.830Z,90.30
2018-04-22T04:24:36.903Z,91.60
2018-04-22T04:29:40.521Z,92.60
2018-04-22T04:34:44.146Z,92.50
2018-04-22T04:39:47.908Z,92.40
2018-04-22T04:44:51.245Z,92.10
2018-04-22T04:49:54.476Z,92.40
2018-04-22T04:54:57.836Z,93.10
2018-04-22T05:00:01.079Z,92.80
2018-04-22T05:05:04.738Z,93.50
2018-04-22T05:10:07.952Z,93.50
2018-04-22T05:15:11.178Z,93.60
2018-04-22T05:20:14.501Z,92.80
2018-04-22T05:25:17.714Z,92.20
2018-04-22T05:30:21.331Z,92.10
2018-04-22T05:35:24.950Z,91.40
2018-04-22T05:40:28.658Z,90.80
2018-04-22T05:45:32.277Z,90.70
2018-04-22T05:50:35.902Z,89.90
2018-04-22T05:55:39.599Z,89.00
2018-04-22T06:00:42.836Z,89.00
2018-04-22T06:05:46.095Z,87.50
2018-04-22T06:10:49.306Z,89.30
2018-04-22T06:15:52.554Z,89.00
2018-04-22T06:20:55.772Z,88.50
2018-04-22T06:25:58.996Z,85.90
2018-04-22T06:31:02.241Z,83.90
2018-04-22T06:36:05.459Z,82.70
2018-04-22T06:41:09.162Z,81.00
2018-04-22T06:46:12.437Z,81.00
2018-04-22T06:51:15.651Z,80.70
2018-04-22T06:56:19.115Z,80.60
2018-04-22T07:01:22.496Z,80.50
2018-04-22T07:06:26.173Z,79.00
2018-04-22T07:11:29.414Z,79.00
2018-04-22T07:16:32.640Z,79.10
2018-04-22T07:21:36.255Z,78.40
2018-04-22T07:26:39.927Z,78.80
2018-04-22T07:31:43.159Z,78.80
2018-04-22T07:36:46.408Z,78.40
2018-04-22T07:41:49.688Z,78.20
2018-04-22T07:46:53.334Z,78.30
2018-04-22T07:51:56.564Z,78.30
2018-04-22T07:56:59.798Z,77.10
2018-04-22T08:02:03.444Z,77.00
2018-04-22T08:07:06.676Z,77.00
2018-04-22T08:12:09.935Z,76.80
2018-04-22T08:17:13.579Z,75.80
2018-04-22T08:22:16.788Z,75.80
2018-04-22T08:27:20.062Z,75.70
2018-04-22T08:32:23.740Z,74.50
2018-04-22T08:37:26.989Z,74.40
2018-04-22T08:42:30.241Z,74.60
2018-04-22T08:47:33.570Z,72.90
2018-04-22T08:52:36.824Z,72.10
2018-04-22T08:57:40.043Z,71.50
2018-04-22T09:02:43.406Z,71.30
2018-04-22T09:07:46.712Z,71.20
2018-04-22T09:12:49.956Z,70.40
2018-04-22T09:17:53.173Z,69.50
2018-04-22T09:22:56.533Z,69.60
2018-04-22T09:27:59.823Z,70.30
2018-04-22T09:33:03.481Z,69.70
2018-04-22T09:38:06.884Z,69.70
2018-04-22T09:43:10.566Z,69.00
2018-04-22T09:48:13.784Z,69.00
2018-04-22T09:53:17.027Z,68.70
2018-04-22T09:58:20.238Z,67.70
2018-04-22T10:03:23.484Z,67.80
2018-04-22T10:08:26.912Z,68.30
2018-04-22T10:13:30.629Z,66.90
2018-04-22T10:18:34.655Z,65.70
2018-04-22T10:23:37.883Z,66.70
2018-04-22T10:28:41.100Z,65.60
2018-04-22T10:33:44.343Z,64.80
2018-04-22T10:38:47.678Z,64.00
2018-04-22T10:43:50.990Z,64.00
2018-04-22T10:48:54.632Z,61.20
2018-04-22T10:53:57.862Z,61.20
2018-04-22T10:59:01.111Z,62.20
2018-04-22T11:04:04.421Z,60.70
2018-04-22T11:09:07.657Z,61.00
2018-04-22T11:14:10.923Z,60.80
2018-04-22T11:19:14.172Z,60.30
2018-04-22T11:24:18.110Z,59.00
2018-04-22T11:29:21.390Z,59.40
2018-04-22T11:34:24.675Z,58.20
2018-04-22T11:39:28.036Z,56.80
2018-04-22T11:44:31.264Z,54.40
2018-04-22T11:49:34.494Z,52.40
2018-04-22T11:54:37.703Z,51.50
2018-04-22T11:59:41.335Z,48.50
2018-04-22T12:04:44.970Z,47.80
2018-04-22T12:09:48.199Z,47.80
2018-04-22T12:14:51.642Z,47.80
2018-04-22T12:19:55.373Z,47.70
2018-04-22T12:24:58.666Z,47.70
2018-04-22T12:30:02.283Z,47.20
2018-04-22T12:35:05.892Z,47.30
2018-04-22T12:40:09.543Z,47.80
2018-04-22T12:45:12.794Z,47.80
2018-04-22T12:50:16.135Z,49.30
2018-04-22T12:55:19.740Z,48.80
2018-04-22T13:00:22.990Z,48.80
2018-04-22T13:05:26.221Z,48.10
2018-04-22T13:10:29.477Z,49.30
2018-04-22T13:15:32.786Z,49.30
2018-04-22T13:20:36.403Z,50.10
2018-04-22T13:25:39.666Z,50.10
2018-04-22T13:30:42.994Z,50.30
2018-04-22T13:35:46.228Z,49.20
2018-04-22T13:40:49.617Z,49.80
2018-04-22T13:45:53.253Z,52.20
2018-04-22T13:50:56.484Z,52.20
2018-04-22T13:55:59.749Z,55.00
2018-04-22T14:01:03.453Z,55.70
2018-04-22T14:06:07.168Z,56.50
2018-04-22T14:11:10.415Z,56.40
2018-04-22T14:16:13.692Z,56.00
2018-04-22T14:21:17.396Z,53.70
2018-04-22T14:26:20.834Z,53.70
2018-04-22T14:31:24.305Z,53.80
2018-04-22T14:36:27.539Z,53.80
2018-04-22T14:41:31.237Z,50.60
2018-04-22T14:46:34.854Z,50.50
2018-04-22T14:51:38.086Z,50.50
2018-04-22T14:56:41.345Z,50.60
2018-04-22T15:01:44.670Z,51.10
2018-04-22T15:06:48.358Z,51.30
2018-04-22T15:11:51.695Z,51.30
2018-04-22T15:16:54.949Z,51.20
2018-04-22T15:21:58.185Z,51.50
2018-04-22T15:27:02.022Z,51.20
2018-04-22T15:32:05.302Z,51.60
2018-04-22T15:37:08.844Z,51.00
2018-04-22T15:42:12.074Z,51.90
2018-04-22T15:47:15.456Z,51.60
2018-04-22T15:52:18.688Z,54.00
2018-04-22T15:57:21.970Z,53.00
2018-04-22T16:02:25.709Z,50.50
2018-04-22T16:07:28.994Z,50.50
2018-04-22T16:12:32.916Z,50.80
2018-04-22T16:17:36.528Z,49.80
2018-04-22T16:22:40.256Z,49.30
2018-04-22T16:27:43.960Z,48.10
2018-04-22T16:32:47.576Z,48.50
2018-04-22T16:37:51.297Z,48.50
2018-04-22T16:42:55.014Z,52.70
2018-04-22T16:47:58.703Z,56.20
2018-04-22T16:53:01.942Z,56.20
2018-04-22T16:58:05.173Z,55.60
2018-04-22T17:03:08.553Z,55.00
2018-04-22T17:08:11.775Z,56.10
2018-04-22T17:13:15.028Z,58.00
2018-04-22T17:18:18.283Z,59.60
2018-04-22T17:23:21.647Z,61.20
2018-04-22T17:28:25.374Z,62.50
2018-04-22T17:33:28.595Z,62.50
2018-04-22T17:38:31.826Z,62.10
2018-04-22T17:43:35.046Z,63.70
2018-04-22T17:48:38.289Z,64.60
2018-04-22T17:53:41.566Z,65.20
2018-04-22T17:58:45.232Z,68.80
2018-04-22T18:03:48.488Z,68.80
2018-04-22T18:08:52.267Z,70.40
2018-04-22T18:13:55.478Z,70.40
2018-04-22T18:18:59.396Z,71.40
2018-04-22T18:24:02.815Z,71.80
2018-04-22T18:29:06.634Z,72.40
2018-04-22T18:34:10.447Z,74.00
2018-04-22T18:39:13.732Z,74.00
2018-04-22T18:44:16.947Z,73.20
2018-04-22T18:49:20.273Z,73.90
2018-04-22T18:54:23.958Z,74.70
2018-04-22T18:59:27.271Z,74.70
2018-04-22T19:04:30.922Z,73.60
2018-04-22T19:09:34.213Z,73.60
2018-04-22T19:14:37.856Z,75.00
2018-04-22T19:19:41.220Z,75.00
2018-04-22T19:24:44.834Z,75.70
2018-04-22T19:29:48.963Z,75.70
2018-04-22T19:34:52.785Z,76.10
2018-04-22T19:39:56.100Z,76.10
2018-04-22T19:44:59.722Z,76.80
2018-04-22T19:50:03.175Z,76.40
2018-04-22T19:55:06.718Z,76.40
2018-04-22T20:00:10.034Z,76.70
2018-04-22T20:05:13.782Z,77.50
2018-04-22T20:10:18.898Z,77.50
2018-04-22T20:15:22.145Z,77.40
2018-04-22T20:20:25.383Z,77.80
2018-04-22T20:25:29.311Z,78.00
2018-04-22T20:30:33.210Z,78.00
2018-04-22T20:35:36.591Z,78.10
2018-04-22T20:40:40.956Z,78.40
2018-04-22T20:45:44.355Z,78.40
2018-04-22T20:50:47.875Z,78.80
2018-04-22T20:55:51.383Z,78.80
2018-04-22T21:00:54.651Z,78.70
2018-04-22T21:05:57.883Z,78.60
2018-04-22T21:11:01.406Z,79.50
2018-04-22T21:16:05.366Z,80.20
2018-04-22T21:21:08.675Z,80.20
2018-04-22T21:26:12.128Z,80.00
2018-04-22T21:31:16.150Z,81.40
2018-04-22T21:36:20.692Z,81.30
2018-04-22T21:41:24.595Z,81.70
2018-04-22T21:46:28.084Z,81.70
2018-04-22T21:51:31.461Z,81.70
2018-04-22T21:56:34.792Z,82.50
2018-04-22T22:01:38.070Z,82.20
2018-04-22T22:06:41.593Z,82.10
2018-04-22T22:11:44.893Z,82.30
2018-04-22T22:16:48.347Z,82.80
2018-04-22T22:21:51.756Z,82.30
2018-04-22T22:26:54.976Z,82.30
2018-04-22T22:31:58.582Z,82.50
2018-04-22T22:37:02.191Z,82.80
2018-04-22T22:42:06.119Z,83.10
2018-04-22T22:47:09.725Z,83.10
2018-04-22T22:52:13.359Z,83.50
2018-04-22T22:57:16.584Z,83.50
2018-04-22T23:02:19.803Z,83.20
2018-04-22T23:07:23.048Z,82.60
2018-04-22T23:12:26.258Z,81.90
2018-04-22T23:17:29.884Z,82.90
2018-04-22T23:22:33.508Z,82.60
2018-04-22T23:27:36.745Z,82.60
2018-04-22T23:32:39.965Z,83.00
2018-04-22T23:37:43.179Z,83.10
2018-04-22T23:42:46.412Z,83.30
2018-04-22T23:47:50.038Z,84.60
2018-04-22T23:52:53.271Z,84.60
2018-04-22T23:57:56.501Z,84.70
